createdAt,value
2018-09-11T00:00:14.444Z,16.80
2018-09-11T00:02:43.619Z,16.70
2018-09-11T00:05:12.625Z,16.80
2018-09-11T00:07:41.623Z,16.70
2018-09-11T00:10:10.681Z,16.60
2018-09-11T00:12:39.803Z,16.60
2018-09-11T00:15:08.865Z,16.70
2018-09-11T00:17:37.991Z,16.70
2018-09-11T00:20:07.097Z,16.60
2018-09-11T00:22:36.137Z,16.50
2018-09-11T00:25:06.199Z,16.50
2018-09-11T00:27:35.257Z,16.40
2018-09-11T00:30:04.939Z,16.30
2018-09-11T00:32:34.240Z,16.30
2018-09-11T00:35:03.277Z,16.30
2018-09-11T00:37:32.273Z,16.30
2018-09-11T00:40:01.481Z,16.30
2018-09-11T00:42:30.519Z,16.20
2018-09-11T00:44:59.513Z,16.10
2018-09-11T00:47:29.033Z,16.10
2018-09-11T00:49:58.161Z,16.10
2018-09-11T00:52:27.390Z,16.00
2018-09-11T00:54:56.413Z,16.00
2018-09-11T00:57:25.501Z,16.00
2018-09-11T00:59:54.544Z,15.90
2018-09-11T01:02:23.557Z,15.80
2018-09-11T01:04:52.585Z,15.60
2018-09-11T01:07:21.769Z,15.80
2018-09-11T01:09:50.764Z,15.70
2018-09-11T01:12:19.830Z,15.70
2018-09-11T01:14:48.893Z,15.80
2018-09-11T01:17:17.932Z,15.70
2018-09-11T01:19:47.036Z,15.70
2018-09-11T01:22:16.131Z,15.70
2018-09-11T01:24:45.147Z,15.70
2018-09-11T01:27:14.549Z,15.60
2018-09-11T01:29:43.585Z,15.60
2018-09-11T01:32:12.784Z,15.60
2018-09-11T01:34:41.808Z,15.60
2018-09-11T01:37:11.293Z,15.50
2018-09-11T01:39:40.596Z,15.50
2018-09-11T01:42:09.642Z,15.40
2018-09-11T01:44:38.672Z,15.40
2018-09-11T01:47:07.808Z,15.40
2018-09-11T01:49:36.953Z,15.40
2018-09-11T01:52:06.151Z,15.40
2018-09-11T01:54:35.152Z,15.40
2018-09-11T01:57:04.180Z,15.50
2018-09-11T01:59:33.197Z,15.50
2018-09-11T02:02:02.188Z,15.50
2018-09-11T02:04:31.275Z,15.60
2018-09-11T02:07:00.289Z,15.70
2018-09-11T02:09:29.375Z,15.80
2018-09-11T02:11:58.404Z,16.00
2018-09-11T02:14:27.405Z,15.80
2018-09-11T02:16:56.568Z,15.70
2018-09-11T02:19:25.552Z,15.60
2018-09-11T02:21:54.780Z,15.60
2018-09-11T02:24:23.791Z,15.60
2018-09-11T02:26:53.080Z,15.50
2018-09-11T02:29:22.230Z,15.40
2018-09-11T02:31:51.209Z,15.40
2018-09-11T02:34:20.250Z,15.30
2018-09-11T02:36:49.272Z,15.40
2018-09-11T02:39:18.282Z,15.40
2018-09-11T02:41:47.350Z,15.40
2018-09-11T02:44:16.352Z,15.50
2018-09-11T02:46:45.376Z,15.40
2018-09-11T02:49:14.381Z,15.40
2018-09-11T02:51:43.461Z,15.50
2018-09-11T02:54:12.449Z,15.50
2018-09-11T02:56:41.496Z,15.50
2018-09-11T02:59:10.624Z,15.40
2018-09-11T03:01:39.713Z,15.40
2018-09-11T03:04:09.002Z,15.30
2018-09-11T03:06:38.039Z,15.20
2018-09-11T03:09:07.218Z,15.40
2018-09-11T03:11:36.362Z,15.30
2018-09-11T03:14:05.448Z,15.30
2018-09-11T03:16:34.480Z,15.30
2018-09-11T03:19:03.545Z,15.30
2018-09-11T03:21:32.555Z,15.20
2018-09-11T03:24:01.728Z,15.20
2018-09-11T03:26:30.720Z,15.20
2018-09-11T03:28:59.777Z,15.10
2018-09-11T03:31:28.796Z,15.10
2018-09-11T03:33:57.785Z,15.10
2018-09-11T03:36:26.838Z,15.10
2018-09-11T03:38:55.869Z,15.10
2018-09-11T03:41:24.908Z,15.10
2018-09-11T03:43:53.917Z,15.00
2018-09-11T03:46:22.964Z,15.00
2018-09-11T03:48:52.553Z,15.00
2018-09-11T03:51:21.740Z,14.80
2018-09-11T03:53:50.784Z,14.90
2018-09-11T03:56:19.858Z,15.00
2018-09-11T03:58:48.926Z,14.90
2018-09-11T04:01:18.034Z,14.90
2018-09-11T04:03:50.115Z,14.90
2018-09-11T04:06:19.157Z,15.00
2018-09-11T04:08:48.229Z,15.00
2018-09-11T04:11:17.284Z,15.00
2018-09-11T04:13:46.323Z,15.00
2018-09-11T04:16:15.516Z,14.90
2018-09-11T04:18:44.576Z,14.90
2018-09-11T04:21:13.652Z,14.90
2018-09-11T04:23:43.036Z,14.80
2018-09-11T04:26:12.068Z,14.80
2018-09-11T04:28:41.176Z,14.90
2018-09-11T04:31:10.243Z,14.90
2018-09-11T04:33:39.321Z,14.80
2018-09-11T04:36:08.459Z,14.80
2018-09-11T04:38:37.434Z,14.60
2018-09-11T04:41:06.497Z,14.60
2018-09-11T04:43:35.517Z,14.60
2018-09-11T04:46:04.513Z,14.50
2018-09-11T04:48:33.596Z,14.50
2018-09-11T04:51:02.612Z,14.40
2018-09-11T04:53:31.660Z,14.40
2018-09-11T04:56:07.478Z,14.40
2018-09-11T04:58:36.779Z,14.40
2018-09-11T05:01:05.880Z,14.50
2018-09-11T05:03:35.665Z,14.50
2018-09-11T05:06:04.708Z,14.40
2018-09-11T05:08:34.128Z,14.40
2018-09-11T05:11:03.184Z,14.50
2018-09-11T05:13:32.180Z,14.60
2018-09-11T05:16:01.224Z,14.60
2018-09-11T05:18:30.264Z,14.70
2018-09-11T05:20:59.699Z,14.80
2018-09-11T05:23:28.727Z,14.70
2018-09-11T05:25:57.833Z,14.70
2018-09-11T05:28:26.845Z,14.80
2018-09-11T05:30:55.881Z,14.80
2018-09-11T05:33:24.973Z,14.80
2018-09-11T05:35:54.341Z,14.90
2018-09-11T05:38:23.399Z,14.90
2018-09-11T05:40:52.393Z,15.00
2018-09-11T05:43:21.524Z,14.90
2018-09-11T05:45:50.701Z,15.10
2018-09-11T05:48:19.890Z,15.10
2018-09-11T05:50:48.896Z,15.20
2018-09-11T05:53:17.936Z,15.20
2018-09-11T05:55:46.941Z,15.20
2018-09-11T05:58:15.984Z,15.20
2018-09-11T06:00:45.412Z,15.30
2018-09-11T06:03:14.741Z,15.40
2018-09-11T06:05:43.780Z,15.50
2018-09-11T06:08:12.765Z,15.50
2018-09-11T06:10:41.813Z,15.40
2018-09-11T06:13:10.805Z,15.80
2018-09-11T06:15:39.947Z,15.90
2018-09-11T06:18:08.955Z,15.80
2018-09-11T06:20:37.993Z,15.90
2018-09-11T06:23:07.011Z,16.10
2018-09-11T06:25:36.104Z,16.20
2018-09-11T06:28:05.104Z,16.30
2018-09-11T06:30:34.172Z,16.40
2018-09-11T06:33:03.181Z,16.50
2018-09-11T06:35:32.317Z,16.40
2018-09-11T06:38:01.324Z,16.60
2018-09-11T06:40:30.364Z,16.70
2018-09-11T06:42:59.599Z,16.70
2018-09-11T06:45:28.684Z,16.60
2018-09-11T06:47:57.698Z,16.60
2018-09-11T06:50:26.780Z,16.70
2018-09-11T06:52:55.842Z,16.90
2018-09-11T06:55:24.948Z,17.00
2018-09-11T06:57:54.126Z,17.20
2018-09-11T07:00:23.216Z,17.30
2018-09-11T07:02:52.225Z,17.30
2018-09-11T07:05:21.306Z,17.50
2018-09-11T07:07:50.552Z,17.70
2018-09-11T07:10:19.659Z,17.90
2018-09-11T07:12:48.908Z,18.00
2018-09-11T07:15:18.082Z,18.20
2018-09-11T07:17:47.113Z,18.60
2018-09-11T07:20:16.485Z,19.30
2018-09-11T07:22:45.236Z,20.90
2018-09-11T07:25:14.288Z,22.60
2018-09-11T07:27:43.417Z,23.40
2018-09-11T07:30:12.408Z,23.60
2018-09-11T07:32:41.434Z,23.70
2018-09-11T07:35:10.464Z,24.00
2018-09-11T07:37:39.518Z,24.80
2018-09-11T07:40:09.053Z,25.80
2018-09-11T07:42:38.127Z,25.60
2018-09-11T07:45:07.190Z,26.10
2018-09-11T07:47:36.794Z,25.90
2018-09-11T07:50:06.373Z,25.10
2018-09-11T07:52:35.420Z,25.10
2018-09-11T07:55:04.621Z,24.60
2018-09-11T07:57:33.711Z,24.60
2018-09-11T08:00:02.748Z,24.40
2018-09-11T08:02:31.765Z,24.40
2018-09-11T08:05:01.127Z,24.20
2018-09-11T08:07:30.092Z,23.80
2018-09-11T08:09:59.113Z,23.90
2018-09-11T08:12:28.157Z,24.30
2018-09-11T08:14:57.244Z,25.20
2018-09-11T08:17:26.348Z,26.30
2018-09-11T08:19:55.654Z,28.30
2018-09-11T08:22:24.790Z,28.60
2018-09-11T08:24:53.797Z,28.50
2018-09-11T08:27:22.783Z,28.20
2018-09-11T08:29:51.838Z,28.10
2018-09-11T08:32:20.868Z,27.50
2018-09-11T08:34:50.168Z,28.00
2018-09-11T08:37:19.181Z,28.40
2018-09-11T08:39:48.186Z,28.90
2018-09-11T08:42:17.263Z,29.60
2018-09-11T08:44:46.280Z,30.20
2018-09-11T08:47:15.288Z,30.10
2018-09-11T08:49:44.352Z,30.50
2018-09-11T08:52:13.423Z,30.50
2018-09-11T08:54:42.436Z,30.20
2018-09-11T08:57:11.412Z,30.70
2018-09-11T08:59:40.448Z,30.40
2018-09-11T09:02:10.393Z,30.50
2018-09-11T09:04:39.447Z,30.60
2018-09-11T09:07:08.508Z,30.80
2018-09-11T09:09:37.547Z,30.20
2018-09-11T09:12:06.580Z,30.00
2018-09-11T09:14:35.686Z,29.50
2018-09-11T09:17:04.704Z,29.60
2018-09-11T09:19:33.723Z,30.00
2018-09-11T09:22:02.708Z,29.60
2018-09-11T09:24:31.752Z,30.10
2018-09-11T09:27:00.803Z,30.40
2018-09-11T09:29:30.077Z,30.60
2018-09-11T09:31:59.092Z,30.60
2018-09-11T09:34:28.068Z,30.80
2018-09-11T09:36:57.443Z,30.60
2018-09-11T09:39:26.480Z,30.70
2018-09-11T09:41:55.545Z,31.20
2018-09-11T09:44:24.662Z,31.40
2018-09-11T09:46:53.738Z,30.50
2018-09-11T09:49:22.774Z,30.10
2018-09-11T09:51:51.786Z,30.40
2018-09-11T09:54:21.742Z,30.50
2018-09-11T09:56:50.748Z,31.50
2018-09-11T09:59:19.757Z,31.60
2018-09-11T10:01:54.057Z,31.30
2018-09-11T10:04:23.024Z,31.80
2018-09-11T10:06:52.084Z,31.70
2018-09-11T10:09:21.116Z,31.20
2018-09-11T10:11:50.197Z,31.20
2018-09-11T10:14:19.188Z,30.80
2018-09-11T10:16:48.196Z,31.10
2018-09-11T10:19:17.180Z,31.40
2018-09-11T10:21:46.220Z,31.00
2018-09-11T10:24:15.212Z,31.40
2018-09-11T10:26:44.217Z,31.60
2018-09-11T10:29:13.201Z,30.70
2018-09-11T10:31:42.236Z,30.90
2018-09-11T10:34:11.313Z,30.80
2018-09-11T10:36:40.369Z,30.80
2018-09-11T10:39:09.775Z,31.20
2018-09-11T10:41:38.784Z,30.90
2018-09-11T10:44:07.810Z,31.00
2018-09-11T10:46:36.823Z,30.30
2018-09-11T10:49:06.196Z,30.40
2018-09-11T10:51:35.228Z,29.90
2018-09-11T10:54:04.276Z,29.80
2018-09-11T10:56:33.363Z,30.20
2018-09-11T10:59:02.368Z,29.90
2018-09-11T11:01:31.407Z,29.90
2018-09-11T11:04:00.610Z,30.50
2018-09-11T11:06:29.650Z,30.60
2018-09-11T11:08:58.624Z,30.60
2018-09-11T11:11:27.649Z,30.80
2018-09-11T11:13:56.647Z,31.10
2018-09-11T11:16:25.677Z,31.40
2018-09-11T11:18:54.750Z,31.20
2018-09-11T11:21:23.752Z,31.30
2018-09-11T11:23:52.764Z,31.70
2018-09-11T11:26:21.784Z,30.50
2018-09-11T11:28:50.880Z,29.80
2018-09-11T11:31:19.944Z,30.00
2018-09-11T11:33:48.920Z,30.40
2018-09-11T11:36:18.012Z,30.60
2018-09-11T11:38:46.973Z,30.70
2018-09-11T11:41:16.005Z,30.70
2018-09-11T11:43:45.021Z,30.50
2018-09-11T11:46:14.070Z,30.20
2018-09-11T11:48:43.063Z,30.60
2018-09-11T11:51:12.114Z,30.60
2018-09-11T11:53:41.121Z,30.40
2018-09-11T11:56:10.097Z,30.50
2018-09-11T11:58:39.144Z,30.60
2018-09-11T12:01:08.272Z,30.40
2018-09-11T12:03:37.281Z,30.40
2018-09-11T12:06:06.542Z,30.40
2018-09-11T12:08:35.784Z,30.00
2018-09-11T12:11:04.924Z,29.80
2018-09-11T12:13:33.904Z,29.80
2018-09-11T12:16:03.046Z,30.00
2018-09-11T12:18:32.345Z,30.10
2018-09-11T12:21:01.376Z,29.70
2018-09-11T12:23:30.432Z,29.60
2018-09-11T12:25:59.408Z,29.40
2018-09-11T12:28:28.432Z,29.50
2018-09-11T12:30:57.451Z,29.40
2018-09-11T12:33:26.504Z,29.40
2018-09-11T12:35:55.525Z,29.60
2018-09-11T12:38:24.557Z,29.50
2018-09-11T12:40:53.573Z,29.60
2018-09-11T12:43:22.604Z,29.50
2018-09-11T12:45:51.779Z,29.30
2018-09-11T12:48:21.102Z,29.50
2018-09-11T12:50:49.837Z,29.50
2018-09-11T12:53:18.822Z,29.50
2018-09-11T12:55:47.864Z,29.40
2018-09-11T12:58:16.898Z,29.50
2018-09-11T13:00:45.964Z,29.60
2018-09-11T13:03:14.983Z,29.80
2018-09-11T13:05:44.015Z,29.60
2018-09-11T13:08:13.142Z,29.30
2018-09-11T13:10:42.172Z,29.00
2018-09-11T13:13:11.234Z,29.10
2018-09-11T13:15:40.310Z,29.30
2018-09-11T13:18:09.419Z,29.40
2018-09-11T13:20:38.385Z,29.30
2018-09-11T13:23:07.433Z,29.30
2018-09-11T13:25:36.439Z,29.20
2018-09-11T13:28:05.724Z,29.10
2018-09-11T13:30:34.741Z,29.10
2018-09-11T13:33:03.745Z,29.10
2018-09-11T13:35:32.778Z,29.00
2018-09-11T13:38:01.797Z,29.10
2018-09-11T13:40:31.961Z,29.20
2018-09-11T13:43:01.122Z,29.20
2018-09-11T13:45:30.180Z,29.30
2018-09-11T13:47:59.336Z,29.30
2018-09-11T13:50:28.346Z,29.20
2018-09-11T13:52:57.364Z,29.20
2018-09-11T13:55:26.403Z,29.10
2018-09-11T13:57:55.400Z,29.10
2018-09-11T14:00:24.505Z,29.10
2018-09-11T14:02:53.585Z,29.10
2018-09-11T14:05:22.635Z,29.10
2018-09-11T14:07:51.762Z,29.00
2018-09-11T14:10:20.809Z,28.90
2018-09-11T14:12:49.801Z,28.90
2018-09-11T14:15:18.829Z,28.90
2018-09-11T14:17:47.825Z,29.00
2018-09-11T14:20:16.856Z,29.00
2018-09-11T14:22:45.849Z,29.10
2018-09-11T14:25:14.887Z,29.10
2018-09-11T14:27:43.893Z,29.10
2018-09-11T14:30:12.903Z,29.20
2018-09-11T14:32:41.983Z,29.30
2018-09-11T14:35:10.974Z,29.30
2018-09-11T14:37:39.989Z,29.20
2018-09-11T14:40:08.999Z,29.20
2018-09-11T14:42:38.001Z,29.10
2018-09-11T14:45:07.337Z,29.00
2018-09-11T14:47:42.991Z,28.80
2018-09-11T14:50:13.361Z,28.80
2018-09-11T14:52:42.523Z,28.80
2018-09-11T14:55:11.935Z,28.80
2018-09-11T14:57:40.957Z,28.90
2018-09-11T15:00:10.073Z,28.90
2018-09-11T15:02:39.032Z,28.80
2018-09-11T15:05:08.172Z,28.80
2018-09-11T15:07:37.170Z,28.90
2018-09-11T15:10:06.207Z,28.90
2018-09-11T15:12:35.291Z,28.90
2018-09-11T15:15:04.417Z,28.80
2018-09-11T15:17:33.410Z,28.80
2018-09-11T15:20:02.480Z,28.70
2018-09-11T15:22:31.505Z,28.70
2018-09-11T15:25:00.470Z,28.60
2018-09-11T15:27:29.521Z,28.60
2018-09-11T15:29:58.615Z,28.50
2018-09-11T15:32:27.592Z,28.50
2018-09-11T15:34:56.661Z,28.60
2018-09-11T15:37:25.690Z,28.70
2018-09-11T15:39:54.712Z,28.60
2018-09-11T15:42:24.716Z,28.60
2018-09-11T15:44:53.814Z,28.60
2018-09-11T15:47:22.925Z,28.50
2018-09-11T15:49:51.990Z,28.40
2018-09-11T15:52:21.025Z,28.40
2018-09-11T15:54:49.991Z,28.30
2018-09-11T15:57:19.049Z,28.20
2018-09-11T15:59:54.739Z,28.20
2018-09-11T16:02:24.080Z,28.10
2018-09-11T16:04:53.111Z,28.10
2018-09-11T16:07:22.140Z,28.10
2018-09-11T16:09:51.201Z,28.00
2018-09-11T16:12:20.168Z,28.00
2018-09-11T16:14:49.193Z,27.90
2018-09-11T16:17:18.184Z,27.90
2018-09-11T16:19:47.492Z,27.80
2018-09-11T16:22:16.562Z,27.80
2018-09-11T16:24:45.633Z,27.70
2018-09-11T16:27:14.669Z,27.60
2018-09-11T16:29:43.665Z,27.50
2018-09-11T16:32:12.689Z,27.50
2018-09-11T16:34:41.695Z,27.50
2018-09-11T16:37:10.716Z,27.40
2018-09-11T16:39:39.756Z,27.30
2018-09-11T16:42:08.785Z,27.20
2018-09-11T16:44:38.054Z,27.20
2018-09-11T16:47:07.173Z,27.10
2018-09-11T16:49:36.157Z,27.10
2018-09-11T16:52:05.228Z,27.00
2018-09-11T16:54:34.220Z,27.00
2018-09-11T16:57:03.265Z,26.90
2018-09-11T16:59:33.025Z,26.80
2018-09-11T17:02:02.105Z,26.70
2018-09-11T17:04:31.243Z,26.70
2018-09-11T17:07:00.351Z,26.60
2018-09-11T17:09:29.361Z,26.50
2018-09-11T17:11:58.598Z,26.50
2018-09-11T17:14:27.679Z,26.40
2018-09-11T17:16:56.643Z,26.30
2018-09-11T17:19:25.645Z,26.30
2018-09-11T17:21:54.803Z,26.20
2018-09-11T17:24:23.836Z,26.10
2018-09-11T17:26:52.900Z,26.00
2018-09-11T17:29:21.910Z,25.90
2018-09-11T17:31:51.033Z,25.90
2018-09-11T17:34:20.086Z,25.80
2018-09-11T17:36:49.113Z,25.70
2018-09-11T17:39:18.104Z,25.60
2018-09-11T17:41:47.141Z,25.40
2018-09-11T17:44:16.136Z,25.30
2018-09-11T17:46:45.213Z,25.10
2018-09-11T17:49:14.302Z,25.00
2018-09-11T17:51:43.261Z,24.90
2018-09-11T17:54:12.316Z,24.80
2018-09-11T17:56:41.376Z,24.80
2018-09-11T17:59:10.702Z,24.70
2018-09-11T18:01:39.722Z,24.60
2018-09-11T18:04:08.701Z,24.40
2018-09-11T18:06:37.712Z,24.30
2018-09-11T18:09:07.766Z,24.30
2018-09-11T18:11:36.785Z,24.20
2018-09-11T18:14:05.780Z,24.10
2018-09-11T18:16:34.801Z,23.90
2018-09-11T18:19:03.832Z,23.80
2018-09-11T18:21:33.003Z,23.70
2018-09-11T18:24:01.996Z,23.60
2018-09-11T18:26:31.031Z,23.60
2018-09-11T18:29:00.328Z,23.50
2018-09-11T18:31:29.285Z,23.50
2018-09-11T18:33:58.445Z,23.40
2018-09-11T18:36:27.636Z,23.30
2018-09-11T18:38:56.624Z,23.20
2018-09-11T18:41:25.632Z,23.10
2018-09-11T18:43:54.870Z,23.00
2018-09-11T18:46:23.990Z,22.90
2018-09-11T18:48:53.009Z,22.80
2018-09-11T18:51:22.163Z,22.80
2018-09-11T18:53:51.100Z,22.70
2018-09-11T18:56:20.305Z,22.70
2018-09-11T18:58:49.329Z,22.70
2018-09-11T19:01:18.358Z,22.60
2018-09-11T19:03:47.384Z,22.60
2018-09-11T19:06:16.390Z,22.50
2018-09-11T19:08:45.476Z,22.50
2018-09-11T19:11:14.491Z,22.50
2018-09-11T19:13:43.504Z,22.40
2018-09-11T19:16:13.188Z,22.40
2018-09-11T19:18:42.288Z,22.30
2018-09-11T19:21:11.316Z,22.30
2018-09-11T19:23:40.409Z,22.20
2018-09-11T19:26:09.594Z,22.10
2018-09-11T19:28:38.607Z,22.00
2018-09-11T19:31:07.689Z,22.00
2018-09-11T19:33:36.749Z,21.90
2018-09-11T19:36:06.052Z,21.90
2018-09-11T19:38:35.122Z,21.80
2018-09-11T19:41:04.179Z,21.80
2018-09-11T19:43:33.181Z,21.80
2018-09-11T19:46:02.285Z,21.80
2018-09-11T19:48:31.273Z,21.70
2018-09-11T19:51:00.401Z,21.70
2018-09-11T19:53:29.384Z,21.60
2018-09-11T19:55:58.448Z,21.50
2018-09-11T19:58:27.697Z,21.40
2018-09-11T20:00:56.736Z,21.40
2018-09-11T20:03:25.764Z,21.40
2018-09-11T20:05:54.962Z,21.40
2018-09-11T20:08:24.046Z,21.30
2018-09-11T20:10:53.109Z,21.30
2018-09-11T20:13:22.121Z,21.30
2018-09-11T20:15:51.190Z,21.20
2018-09-11T20:18:20.303Z,21.20
2018-09-11T20:20:49.767Z,21.10
2018-09-11T20:23:18.789Z,21.00
2018-09-11T20:25:47.897Z,21.00
2018-09-11T20:28:16.880Z,20.90
2018-09-11T20:30:45.885Z,20.80
2018-09-11T20:33:14.956Z,20.80
2018-09-11T20:35:43.986Z,20.70
2018-09-11T20:38:13.055Z,20.70
2018-09-11T20:40:42.058Z,20.70
2018-09-11T20:43:11.128Z,20.70
2018-09-11T20:45:40.190Z,20.70
2018-09-11T20:48:09.300Z,20.60
2018-09-11T20:50:38.666Z,20.60
2018-09-11T20:53:07.724Z,20.50
2018-09-11T20:55:36.830Z,20.50
2018-09-11T20:58:05.840Z,20.50
2018-09-11T21:00:34.832Z,20.40
2018-09-11T21:03:03.897Z,20.40
2018-09-11T21:05:32.928Z,20.30
2018-09-11T21:08:01.924Z,20.20
2018-09-11T21:10:30.938Z,20.20
2018-09-11T21:12:59.959Z,20.20
2018-09-11T21:15:28.958Z,20.20
2018-09-11T21:17:57.958Z,20.20
2018-09-11T21:20:27.055Z,20.20
2018-09-11T21:22:56.094Z,20.20
2018-09-11T21:25:25.265Z,20.10
2018-09-11T21:27:54.422Z,20.00
2018-09-11T21:30:23.557Z,19.90
2018-09-11T21:32:52.664Z,19.90
2018-09-11T21:35:21.699Z,19.90
2018-09-11T21:37:50.770Z,19.80
2018-09-11T21:40:19.873Z,19.80
2018-09-11T21:42:48.885Z,19.80
2018-09-11T21:45:17.902Z,19.70
2018-09-11T21:47:46.948Z,19.70
2018-09-11T21:50:15.946Z,19.70
2018-09-11T21:52:45.000Z,19.70
2018-09-11T21:55:14.111Z,19.70
2018-09-11T21:57:43.387Z,19.70
2018-09-11T22:00:13.382Z,19.70
2018-09-11T22:02:42.358Z,19.60
2018-09-11T22:05:11.674Z,19.60
2018-09-11T22:07:40.680Z,19.50
2018-09-11T22:10:10.954Z,19.50
2018-09-11T22:12:40.220Z,19.50
2018-09-11T22:15:10.470Z,19.40
2018-09-11T22:17:39.544Z,19.40
2018-09-11T22:20:08.642Z,19.40
2018-09-11T22:22:37.993Z,19.40
2018-09-11T22:25:07.005Z,19.50
2018-09-11T22:27:36.023Z,19.50
2018-09-11T22:30:05.272Z,19.50
2018-09-11T22:32:34.262Z,19.50
2018-09-11T22:35:03.313Z,19.40
2018-09-11T22:37:32.307Z,19.40
2018-09-11T22:40:01.284Z,19.40
2018-09-11T22:42:30.329Z,19.40
2018-09-11T22:44:59.462Z,19.30
2018-09-11T22:47:28.448Z,19.30
2018-09-11T22:49:57.461Z,19.20
2018-09-11T22:52:26.500Z,19.10
2018-09-11T22:54:55.558Z,19.00
2018-09-11T22:57:24.616Z,19.00
2018-09-11T22:59:54.002Z,19.00
2018-09-11T23:02:23.003Z,19.00
2018-09-11T23:04:52.039Z,19.10
2018-09-11T23:07:21.433Z,19.00
2018-09-11T23:09:50.461Z,19.00
2018-09-11T23:12:19.564Z,19.00
2018-09-11T23:14:48.590Z,19.00
2018-09-11T23:17:17.624Z,18.90
2018-09-11T23:19:46.661Z,18.80
2018-09-11T23:22:15.685Z,18.80
2018-09-11T23:24:44.724Z,18.70
2018-09-11T23:27:13.792Z,18.70
2018-09-11T23:29:42.819Z,18.60
2018-09-11T23:32:11.917Z,18.60
2018-09-11T23:34:40.939Z,18.60
2018-09-11T23:37:10.032Z,18.60
2018-09-11T23:39:39.068Z,18.60
2018-09-11T23:42:08.051Z,18.50
2018-09-11T23:44:37.120Z,18.40
2018-09-11T23:47:06.122Z,18.30
2018-09-11T23:49:35.121Z,18.20
2018-09-11T23:52:04.274Z,18.10
2018-09-11T23:54:33.287Z,18.10
2018-09-11T23:57:02.326Z,18.00
2018-09-11T23:59:31.340Z,18.00
